Tallulah, Louisiana
Current Conditions -  °F | °C
As of 8:53 PM on Sunday 23 Nov 2014 (Local Time) from KTVR Reporting Station
Clear Clear  
Wind Chill: 65°   Ceiling: Unl
Heat Index: 65°   Visibility: 10mi
Dew Point: 58°   Wind: 9mph
Humidity: 78%   Direction: 200°SSW
Pressure: 29.59"   Gusts: 16mph
Location:  32.41°N, 91.19°W
Report Text: KTVR 240253Z AUTO 20008G14KT 170V240 10SM CLR 18/14 A2959 RMK AO2 SLP026 T01830144 51021
Loading
Personal Weather Stations






























Interactive Weather Map New forecast layout! Learn more

10-Day Weather Forecast

Advertisements
Track Severe Weather on mobile